createdAt,value
2023-04-16T00:00:56.887Z,102067.53
2023-04-16T00:06:17.502Z,102075.25
2023-04-16T00:11:37.980Z,102076.13
2023-04-16T00:16:58.563Z,102076.09
2023-04-16T00:22:19.155Z,102083.84
2023-04-16T00:27:40.254Z,102077.84
2023-04-16T00:33:00.950Z,102077.03
2023-04-16T00:38:21.674Z,102073.59
2023-04-16T00:43:42.506Z,102071.00
2023-04-16T00:49:04.109Z,102071.91
2023-04-16T00:54:25.567Z,102078.75
2023-04-16T00:59:46.531Z,102084.75
2023-04-16T01:05:07.215Z,102088.19
2023-04-16T01:10:28.570Z,102083.91
2023-04-16T01:15:49.211Z,102076.19
2023-04-16T01:21:09.940Z,102085.63
2023-04-16T01:26:31.285Z,102089.88
2023-04-16T01:31:52.100Z,102094.16
2023-04-16T01:37:18.958Z,102095.91
2023-04-16T01:42:40.540Z,102088.16
2023-04-16T01:48:03.002Z,102092.44
2023-04-16T01:53:23.679Z,102087.34
2023-04-16T01:58:46.022Z,102094.16
2023-04-16T02:04:08.581Z,102091.59
2023-04-16T02:09:29.034Z,102094.28
2023-04-16T02:14:49.822Z,102095.16
2023-04-16T02:20:15.929Z,102102.88
2023-04-16T02:25:46.256Z,102095.22
2023-04-16T02:31:07.870Z,102096.09
2023-04-16T02:36:35.396Z,102098.69
2023-04-16T02:41:56.115Z,102098.69
2023-04-16T02:47:17.387Z,102108.13
2023-04-16T02:52:37.989Z,102105.50
2023-04-16T02:57:58.414Z,102106.38
2023-04-16T03:03:19.583Z,102108.97
2023-04-16T03:08:40.716Z,102113.25
2023-04-16T03:14:01.149Z,102122.66
2023-04-16T03:19:21.716Z,102114.94
2023-04-16T03:24:42.292Z,102113.25
2023-04-16T03:30:03.750Z,102107.25
2023-04-16T03:35:27.440Z,102115.81
2023-04-16T03:40:48.125Z,102114.13
2023-04-16T03:46:09.399Z,102116.69
2023-04-16T03:51:30.101Z,102109.00
2023-04-16T03:56:52.035Z,102113.28
2023-04-16T04:02:12.417Z,102118.41
2023-04-16T04:07:33.366Z,102118.41
2023-04-16T04:12:54.314Z,102123.56
2023-04-16T04:18:15.214Z,102126.97
2023-04-16T04:23:37.319Z,102121.00
2023-04-16T04:28:59.423Z,102126.13
2023-04-16T04:34:20.644Z,102118.44
2023-04-16T04:39:41.604Z,102127.81
2023-04-16T04:45:02.307Z,102128.69
2023-04-16T04:50:26.417Z,102123.53
2023-04-16T04:55:49.218Z,102138.09
2023-04-16T05:01:11.810Z,102132.94
2023-04-16T05:06:32.903Z,102134.63
2023-04-16T05:11:53.953Z,102146.63
2023-04-16T05:17:14.815Z,102140.63
2023-04-16T05:22:35.844Z,102147.50
2023-04-16T05:27:56.784Z,102158.63
2023-04-16T05:33:17.469Z,102164.56
2023-04-16T05:38:38.109Z,102162.84
2023-04-16T05:43:58.486Z,102160.25
2023-04-16T05:49:19.042Z,102167.09
2023-04-16T05:54:39.520Z,102167.06
2023-04-16T06:00:00.338Z,102165.31
2023-04-16T06:05:21.227Z,102160.19
2023-04-16T06:10:42.065Z,102171.31
2023-04-16T06:16:02.615Z,102177.31
2023-04-16T06:21:23.373Z,102175.63
2023-04-16T06:26:44.557Z,102179.91
2023-04-16T06:32:05.589Z,102185.88
2023-04-16T06:37:26.154Z,102185.00
2023-04-16T06:42:46.654Z,102199.44
2023-04-16T06:48:07.502Z,102195.09
2023-04-16T06:53:29.346Z,102200.25
2023-04-16T06:58:50.377Z,102205.38
2023-04-16T07:04:12.130Z,102204.47
2023-04-16T07:09:33.297Z,102216.47
2023-04-16T07:14:53.592Z,102216.53
2023-04-16T07:20:17.448Z,102219.00
2023-04-16T07:25:38.208Z,102233.75
2023-04-16T07:30:59.710Z,102227.75
2023-04-16T07:36:20.981Z,102231.06
2023-04-16T07:41:41.747Z,102230.97
2023-04-16T07:47:05.283Z,102238.72
2023-04-16T07:52:26.845Z,102248.22
2023-04-16T07:57:47.625Z,102233.59
2023-04-16T08:03:10.599Z,102249.97
2023-04-16T08:08:31.711Z,102264.63
2023-04-16T08:13:52.220Z,102264.53
2023-04-16T08:19:13.266Z,102268.91
2023-04-16T08:24:36.706Z,102268.00
2023-04-16T08:29:57.953Z,102279.13
2023-04-16T08:35:18.876Z,102289.41
2023-04-16T08:40:42.455Z,102282.50
2023-04-16T08:46:05.781Z,102300.50
2023-04-16T08:51:30.349Z,102305.63
2023-04-16T08:56:51.906Z,102302.16
2023-04-16T09:02:16.331Z,102305.41
2023-04-16T09:07:38.531Z,102302.78
2023-04-16T09:12:59.167Z,102301.94
2023-04-16T09:18:21.185Z,102307.81
2023-04-16T09:23:42.022Z,102302.50
2023-04-16T09:29:02.703Z,102315.22
2023-04-16T09:34:23.266Z,102307.13
2023-04-16T09:39:44.927Z,102317.97
2023-04-16T09:45:06.400Z,102321.81
2023-04-16T09:50:27.328Z,102326.88
2023-04-16T09:55:47.823Z,102336.38
2023-04-16T10:01:10.812Z,102331.38
2023-04-16T10:06:31.481Z,102339.34
2023-04-16T10:11:52.338Z,102340.31
2023-04-16T10:17:12.970Z,102333.06
2023-04-16T10:22:34.743Z,102337.13
2023-04-16T10:27:56.628Z,102346.06
2023-04-16T10:33:19.414Z,102346.91
2023-04-16T10:38:52.414Z,102347.41
2023-04-16T10:44:13.342Z,102354.59
2023-04-16T10:49:35.544Z,102360.22
2023-04-16T10:54:59.672Z,102365.66
2023-04-16T11:08:17.880Z,102364.47
2023-04-16T11:13:38.461Z,102368.16
2023-04-16T11:18:59.214Z,102361.81
2023-04-16T11:24:19.571Z,102369.41
2023-04-16T11:29:41.430Z,102359.72
2023-04-16T11:35:04.814Z,102352.00
2023-04-16T11:40:29.247Z,102363.53
2023-04-16T11:46:27.054Z,102358.59
2023-04-16T11:51:48.352Z,102367.81
2023-04-16T11:57:09.430Z,102376.44
2023-04-16T12:02:41.024Z,102377.19
2023-04-16T12:08:03.525Z,102379.53
2023-04-16T12:13:24.031Z,102391.56
2023-04-16T12:19:00.412Z,102388.41
2023-04-16T12:24:21.092Z,102406.16
2023-04-16T12:29:41.550Z,102421.09
2023-04-16T12:35:02.352Z,102422.63
2023-04-16T12:40:23.304Z,102414.47
2023-04-16T12:45:44.413Z,102421.47
2023-04-16T12:51:04.809Z,102422.75
2023-04-16T12:56:25.487Z,102428.06
2023-04-16T13:01:46.048Z,102421.34
2023-04-16T13:07:06.663Z,102418.63
2023-04-16T13:12:27.586Z,102400.72
2023-04-16T13:17:47.908Z,102404.06
2023-04-16T13:23:08.758Z,102401.59
2023-04-16T13:28:29.247Z,102397.69
2023-04-16T13:33:50.653Z,102396.66
2023-04-16T13:39:11.497Z,102391.22
2023-04-16T13:44:32.338Z,102382.31
2023-04-16T13:49:56.620Z,102386.66
2023-04-16T13:55:19.151Z,102385.88
2023-04-16T14:00:42.372Z,102384.84
2023-04-16T14:06:03.445Z,102377.56
2023-04-16T14:11:24.092Z,102388.50
2023-04-16T14:16:44.698Z,102377.84
2023-04-16T14:22:06.164Z,102378.31
2023-04-16T14:27:28.129Z,102375.13
2023-04-16T14:32:48.909Z,102376.75
2023-04-16T14:38:11.320Z,102362.69
2023-04-16T14:43:31.908Z,102371.06
2023-04-16T14:48:52.532Z,102369.34
2023-04-16T14:54:13.106Z,102364.63
2023-04-16T14:59:33.632Z,102378.22
2023-04-16T15:04:54.517Z,102375.78
2023-04-16T15:10:15.483Z,102380.44
2023-04-16T15:15:35.865Z,102383.16
2023-04-16T15:20:56.603Z,102386.03
2023-04-16T15:26:17.385Z,102398.44
2023-04-16T15:31:38.330Z,102396.25
2023-04-16T15:36:59.144Z,102400.94
2023-04-16T15:42:19.639Z,102394.28
2023-04-16T15:47:41.858Z,102384.91
2023-04-16T15:53:03.320Z,102381.53
2023-04-16T15:58:24.182Z,102389.78
2023-04-16T16:03:44.984Z,102390.88
2023-04-16T16:09:06.281Z,102394.56
2023-04-16T16:14:27.285Z,102391.72
2023-04-16T16:19:48.010Z,102401.69
2023-04-16T16:25:10.159Z,102397.81
2023-04-16T16:30:30.645Z,102403.25
2023-04-16T16:35:51.378Z,102405.72
2023-04-16T16:41:12.119Z,102403.53
2023-04-16T16:46:32.968Z,102403.09
2023-04-16T16:51:53.423Z,102414.59
2023-04-16T16:57:15.330Z,102401.66
2023-04-16T17:02:36.037Z,102414.69
2023-04-16T17:07:57.113Z,102411.56
2023-04-16T17:13:19.917Z,102415.94
2023-04-16T17:18:40.888Z,102420.53
2023-04-16T17:24:02.167Z,102418.19
2023-04-16T17:29:26.034Z,102426.88
2023-04-16T17:34:46.859Z,102435.59
2023-04-16T17:40:07.989Z,102433.06
2023-04-16T17:45:28.424Z,102446.94
2023-04-16T17:58:46.306Z,102448.84
2023-04-16T18:04:07.326Z,102460.03
2023-04-16T18:09:27.900Z,102463.50
2023-04-16T18:14:48.612Z,102468.69
2023-04-16T18:20:11.627Z,102478.16
2023-04-16T18:25:35.052Z,102488.47
2023-04-16T18:30:58.731Z,102488.47
2023-04-16T18:36:20.049Z,102491.94
2023-04-16T18:41:41.631Z,102489.34
2023-04-16T18:47:02.366Z,102496.22
2023-04-16T18:52:23.696Z,102497.06
2023-04-16T18:57:45.377Z,102500.50
2023-04-16T19:03:14.398Z,102505.66
2023-04-16T19:08:35.328Z,102511.69
2023-04-16T19:14:06.008Z,102516.78
2023-04-16T19:19:31.568Z,102518.50
2023-04-16T19:24:54.717Z,102517.66
2023-04-16T19:30:23.616Z,102513.34
2023-04-16T19:35:48.397Z,102521.94
2023-04-16T19:41:13.784Z,102533.06
2023-04-16T19:46:50.990Z,102532.22
2023-04-16T19:52:18.295Z,102526.19
2023-04-16T19:57:39.518Z,102529.59
2023-04-16T20:03:02.771Z,102539.06
2023-04-16T20:08:23.381Z,102539.88
2023-04-16T20:13:47.912Z,102540.75
2023-04-16T20:19:09.125Z,102545.88
2023-04-16T20:24:32.876Z,102548.44
2023-04-16T20:29:53.665Z,102551.88
2023-04-16T20:35:14.776Z,102547.59
2023-04-16T20:40:38.629Z,102551.88
2023-04-16T20:45:59.176Z,102551.03
2023-04-16T20:51:19.738Z,102550.16
2023-04-16T20:56:40.770Z,102550.19
2023-04-16T21:02:01.827Z,102550.19
2023-04-16T21:07:22.599Z,102549.34
2023-04-16T21:12:43.154Z,102563.06
2023-04-16T21:25:35.355Z,102566.50
2023-04-16T21:30:56.192Z,102574.22
2023-04-16T21:36:17.081Z,102563.06
2023-04-16T21:41:37.896Z,102563.94
2023-04-16T21:46:58.217Z,102567.38
2023-04-16T21:52:18.718Z,102567.38
2023-04-16T21:57:39.369Z,102567.44
2023-04-16T22:03:02.099Z,102562.25
2023-04-16T22:08:24.875Z,102565.72
2023-04-16T22:13:47.767Z,102569.97
2023-04-16T22:19:08.579Z,102566.56
2023-04-16T22:24:28.985Z,102568.22
2023-04-16T22:29:49.876Z,102569.06
2023-04-16T22:35:10.495Z,102575.06
2023-04-16T22:40:31.873Z,102575.06
2023-04-16T22:46:06.469Z,102577.63
2023-04-16T22:51:27.002Z,102577.63
2023-04-16T22:56:48.548Z,102576.78
2023-04-16T23:02:08.969Z,102573.34
2023-04-16T23:07:29.879Z,102575.91
2023-04-16T23:12:50.379Z,102575.91
2023-04-16T23:18:11.014Z,102578.47
2023-04-16T23:23:31.401Z,102575.91
2023-04-16T23:28:52.200Z,102575.91
2023-04-16T23:34:12.784Z,102573.34
2023-04-16T23:39:33.254Z,102581.06
2023-04-16T23:44:53.463Z,102581.94
2023-04-16T23:50:14.059Z,102577.69
2023-04-16T23:55:34.377Z,102574.25
